Time;durP1;ratioP1;P1;durP2;ratioP2;P2;SDS_P1;SDS_P2;PMS_P1;PMS_P2;Temp;Humidity;BMP_temperature;BMP_pressure;BME280_temperature;BME280_humidity;BME280_pressure;Samples;Min_cycle;Max_cycle;Signal;HPM_P1;HPM_P2
2022/07/22 00:02:23;;;;;;;7.15;6.10;;;;;;;25.41;57.17;99423.69;5091863;28;20455;-65
2022/07/22 00:04:50;;;;;;;6.87;5.47;;;;;;;25.51;56.51;99426.78;5092788;28;20191;-68
2022/07/22 00:07:17;;;;;;;6.83;5.80;;;;;;;25.53;56.73;99425.78;5092506;28;20199;-65
2022/07/22 00:09:44;;;;;;;9.43;5.47;;;;;;;25.45;56.53;99422.63;5092543;28;20191;-65
2022/07/22 00:12:13;;;;;;;6.97;6.27;;;;;;;25.46;56.69;99426.13;5090158;28;20203;-66
2022/07/22 00:14:40;;;;;;;9.17;5.43;;;;;;;25.46;56.73;99434.00;5092108;28;20209;-67
2022/07/22 00:17:07;;;;;;;6.30;5.70;;;;;;;25.32;56.70;99412.72;5079142;28;20192;-67
2022/07/22 00:19:34;;;;;;;7.33;5.87;;;;;;;25.43;56.87;99434.16;5073088;28;20199;-66
2022/07/22 00:22:01;;;;;;;7.27;5.43;;;;;;;25.44;56.94;99434.06;5077623;28;20306;-65
2022/07/22 00:24:28;;;;;;;10.30;5.83;;;;;;;25.46;56.74;99437.50;5089294;28;20195;-66
2022/07/22 00:26:55;;;;;;;8.23;6.13;;;;;;;25.46;56.91;99434.00;5080743;28;20205;-66
2022/07/22 00:29:23;;;;;;;5.87;5.37;;;;;;;25.41;56.68;99436.00;5092324;28;20195;-66
2022/07/22 00:31:50;;;;;;;12.73;6.77;;;;;;;25.40;57.15;99434.28;5092086;28;20187;-66
2022/07/22 00:34:17;;;;;;;11.63;6.47;;;;;;;25.39;56.95;99440.44;5091921;28;20198;-66
2022/07/22 00:36:43;;;;;;;11.63;6.97;;;;;;;25.36;57.38;99435.31;5091204;28;20443;-66
2022/07/22 00:39:10;;;;;;;24.47;9.03;;;;;;;25.40;56.80;99443.03;5091898;28;20202;-66
2022/07/22 00:41:37;;;;;;;18.53;7.53;;;;;;;25.40;57.03;99435.13;5092015;28;20225;-66
2022/07/22 00:44:07;;;;;;;10.67;7.10;;;;;;;25.39;56.75;99440.44;5091657;28;20198;-66
2022/07/22 00:46:36;;;;;;;8.80;6.30;;;;;;;25.35;57.29;99446.78;5092055;28;20199;-66
2022/07/22 00:49:04;;;;;;;9.73;6.23;;;;;;;25.33;57.01;99435.47;5091854;28;20202;-66
2022/07/22 00:51:32;;;;;;;10.47;5.93;;;;;;;25.32;57.27;99441.66;5091693;28;20187;-66
2022/07/22 00:54:00;;;;;;;14.70;7.30;;;;;;;25.31;57.22;99437.31;5091661;28;20198;-66
2022/07/22 00:56:28;;;;;;;6.67;6.07;;;;;;;25.29;57.09;99439.16;5091429;28;20201;-66
2022/07/22 00:58:57;;;;;;;7.23;6.47;;;;;;;25.28;57.66;99433.06;5091225;28;20997;-66
2022/07/22 01:01:24;;;;;;;11.27;6.30;;;;;;;25.24;57.71;99439.38;5091618;28;20229;-66
2022/07/22 01:03:52;;;;;;;7.37;6.03;;;;;;;25.20;57.76;99433.41;5091520;28;20195;-66
2022/07/22 01:06:19;;;;;;;9.30;7.00;;;;;;;25.16;56.63;99444.94;5091808;28;20199;-66
2022/07/22 01:08:46;;;;;;;11.43;6.30;;;;;;;25.11;56.38;99446.94;5091805;28;20195;-66
2022/07/22 01:11:16;;;;;;;7.50;6.70;;;;;;;25.10;56.27;99444.38;5091614;28;20252;-67
2022/07/22 01:13:44;;;;;;;10.07;7.10;;;;;;;25.06;56.29;99448.06;5091663;28;20222;-66
2022/07/22 01:16:13;;;;;;;7.00;6.30;;;;;;;25.03;56.73;99448.19;5091508;28;20245;-66
2022/07/22 01:18:40;;;;;;;10.13;6.53;;;;;;;24.98;56.46;99445.78;5091218;28;20613;-67
2022/07/22 01:21:09;;;;;;;7.57;6.80;;;;;;;24.96;56.70;99438.88;5091600;28;20222;-67
2022/07/22 01:23:37;;;;;;;7.40;6.70;;;;;;;24.92;56.77;99446.03;5091235;28;20195;-67
2022/07/22 01:26:05;;;;;;;7.75;6.93;;;;;;;24.94;57.19;99452.06;5089830;28;20444;-67
2022/07/22 01:28:32;;;;;;;8.30;6.53;;;;;;;24.96;56.77;99457.28;5091025;28;20191;-67
2022/07/22 01:30:59;;;;;;;10.73;6.97;;;;;;;24.98;57.01;99450.16;5091089;28;20190;-67
2022/07/22 01:33:25;;;;;;;7.70;6.97;;;;;;;24.95;56.78;99451.16;5090996;28;20661;-67
2022/07/22 01:35:53;;;;;;;8.43;6.30;;;;;;;24.94;56.99;99438.91;5091173;28;20187;-67
2022/07/22 01:38:22;;;;;;;8.40;6.60;;;;;;;24.88;57.21;99447.09;5090895;28;20672;-67
2022/07/22 01:40:49;;;;;;;7.50;6.57;;;;;;;24.86;57.56;99435.75;5090727;28;20187;-67
2022/07/22 01:43:17;;;;;;;8.87;6.90;;;;;;;24.88;57.45;99439.22;5090948;28;20217;-67
2022/07/22 01:45:45;;;;;;;7.47;6.70;;;;;;;24.71;57.71;99412.75;5090292;28;20436;-67
2022/07/22 01:48:12;;;;;;;8.27;6.77;;;;;;;24.94;57.16;99438.91;5090953;28;20244;-67
2022/07/22 01:50:39;;;;;;;7.90;7.10;;;;;;;24.91;57.58;99433.81;5090562;28;20191;-67
2022/07/22 01:53:06;;;;;;;9.27;6.83;;;;;;;24.92;57.38;99435.50;5090740;28;20194;-67
2022/07/22 01:55:34;;;;;;;6.90;6.23;;;;;;;24.89;57.69;99430.38;5090684;28;20198;-67
2022/07/22 01:58:02;;;;;;;7.27;6.60;;;;;;;24.86;58.14;99435.75;5090486;28;20223;-67
2022/07/22 02:00:29;;;;;;;8.07;6.77;;;;;;;24.87;57.93;99429.59;5090886;28;20195;-67
2022/07/22 02:02:56;;;;;;;9.00;6.40;;;;;;;24.86;58.18;99434.94;5090550;28;20716;-67
2022/07/22 02:05:23;;;;;;;8.53;6.63;;;;;;;24.84;58.56;99436.75;5090520;28;20187;-67
2022/07/22 02:07:50;;;;;;;8.47;7.00;;;;;;;24.84;58.31;99428.88;5090372;28;20190;-67
2022/07/22 02:10:16;;;;;;;6.90;6.30;;;;;;;24.81;58.79;99429.84;5089709;28;20191;-67
2022/07/22 02:12:45;;;;;;;8.93;7.03;;;;;;;24.84;58.74;99432.34;5090607;28;20190;-66
2022/07/22 02:15:12;;;;;;;7.27;5.90;;;;;;;24.84;59.04;99429.72;5090442;28;20574;-67
2022/07/22 02:17:39;;;;;;;8.43;6.77;;;;;;;24.83;58.99;99430.63;5090596;28;20202;-67
2022/07/22 02:20:07;;;;;;;7.82;6.55;;;;;;;24.80;59.47;99424.69;5090419;28;20418;-67
2022/07/22 02:22:33;;;;;;;7.60;6.53;;;;;;;24.79;58.64;99425.56;5090344;28;20211;-66
2022/07/22 02:25:00;;;;;;;9.57;7.10;;;;;;;24.82;58.59;99426.31;5090446;28;20193;-67
2022/07/22 02:27:27;;;;;;;14.37;7.40;;;;;;;24.81;58.84;99421.97;5090700;28;20190;-66
2022/07/22 02:29:56;;;;;;;11.40;7.70;;;;;;;24.75;58.52;99427.44;5090529;28;20271;-67
2022/07/22 02:32:22;;;;;;;14.73;7.63;;;;;;;24.71;59.04;99427.66;5090518;28;20202;-66
2022/07/22 02:34:49;;;;;;;10.20;7.53;;;;;;;24.65;58.83;99431.38;5090673;28;20201;-67
2022/07/22 02:37:16;;;;;;;22.40;8.40;;;;;;;24.41;59.16;99396.50;5090575;28;20194;-67
2022/07/22 02:39:43;;;;;;;11.87;8.40;;;;;;;24.53;58.96;99421.41;5090171;28;20444;-67
2022/07/22 02:42:10;;;;;;;9.53;7.57;;;;;;;24.54;59.35;99423.09;5090375;28;20226;-67
2022/07/22 02:44:37;;;;;;;9.90;7.53;;;;;;;24.52;58.90;99417.06;5090282;28;20195;-67
2022/07/22 02:47:06;;;;;;;9.03;7.27;;;;;;;24.46;59.21;99420.78;5090232;28;20190;-66
2022/07/22 02:49:32;;;;;;;9.97;7.60;;;;;;;24.44;58.79;99421.78;5090297;28;20198;-67
2022/07/22 02:51:59;;;;;;;8.83;7.90;;;;;;;24.41;58.92;99422.75;5090009;28;20187;-67
2022/07/22 02:54:26;;;;;;;9.00;7.40;;;;;;;24.35;59.06;99420.38;5090230;28;20187;-67
2022/07/22 02:56:53;;;;;;;10.13;8.43;;;;;;;24.25;59.11;99418.19;5090033;28;20230;-67
2022/07/22 02:59:20;;;;;;;12.87;8.50;;;;;;;24.24;59.26;99411.22;5090050;28;20186;-66
2022/07/22 03:01:47;;;;;;;13.03;8.67;;;;;;;24.24;59.48;99408.59;5089873;28;20215;-66
2022/07/22 03:04:15;;;;;;;10.77;8.53;;;;;;;24.24;59.98;99411.22;5090325;28;20206;-66
2022/07/22 03:06:42;;;;;;;10.07;9.13;;;;;;;24.22;59.85;99410.44;5089723;28;20581;-67
2022/07/22 03:09:09;;;;;;;10.17;9.13;;;;;;;24.19;59.46;99414.03;5089868;28;20187;-67
2022/07/22 03:11:36;;;;;;;11.30;8.47;;;;;;;24.14;59.79;99418.63;5089828;28;20790;-66
2022/07/22 03:14:03;;;;;;;14.10;8.90;;;;;;;24.13;60.54;99422.16;5089642;28;20198;-66
2022/07/22 03:16:29;;;;;;;14.20;9.77;;;;;;;24.16;60.91;99423.81;5089248;28;20444;-66
2022/07/22 03:18:56;;;;;;;10.33;9.40;;;;;;;24.17;60.42;99420.28;5088374;28;20202;-67
2022/07/22 03:21:25;;;;;;;12.50;10.00;;;;;;;24.25;60.66;99426.06;5091738;28;20231;-67
2022/07/22 03:23:53;;;;;;;11.60;10.27;;;;;;;24.23;60.72;99422.66;5093750;28;20199;-67
2022/07/22 03:26:20;;;;;;;11.27;9.37;;;;;;;24.21;61.03;99420.09;5093616;28;20222;-66
2022/07/22 03:28:47;;;;;;;12.43;11.13;;;;;;;24.25;60.79;99420.81;5093264;28;20191;-67
2022/07/22 03:31:14;;;;;;;12.13;10.37;;;;;;;24.31;60.48;99431.91;5093485;28;20195;-67
2022/07/22 03:33:41;;;;;;;13.00;10.23;;;;;;;24.32;60.74;99430.16;5093411;28;20187;-66
2022/07/22 03:36:08;;;;;;;15.53;10.20;;;;;;;24.18;60.97;99409.69;5093254;28;20209;-67
2022/07/22 03:38:37;;;;;;;14.13;10.97;;;;;;;24.32;60.63;99428.38;5093205;28;20190;-66
2022/07/22 03:41:04;;;;;;;14.43;10.10;;;;;;;24.31;61.43;99431.09;5093049;28;20191;-66
2022/07/22 03:43:31;;;;;;;14.27;10.40;;;;;;;24.30;61.62;99432.00;5092991;28;20215;-66
2022/07/22 03:45:58;;;;;;;13.63;11.47;;;;;;;24.29;61.33;99436.38;5093278;28;20205;-67
2022/07/22 03:48:25;;;;;;;15.60;11.67;;;;;;;24.32;61.74;99432.78;5092921;28;20197;-66
2022/07/22 03:50:52;;;;;;;13.07;11.10;;;;;;;24.29;61.53;99427.66;5092861;28;20636;-66
2022/07/22 03:53:20;;;;;;;16.43;11.17;;;;;;;24.31;62.05;99431.91;5092823;28;20191;-66
2022/07/22 03:55:48;;;;;;;13.30;10.67;;;;;;;24.33;62.53;99430.09;5092846;28;20598;-66
2022/07/22 03:58:17;;;;;;;12.60;10.60;;;;;;;24.38;61.89;99437.78;5092612;28;20227;-67
2022/07/22 04:00:43;;;;;;;12.60;10.63;;;;;;;24.39;61.50;99447.38;5092777;28;20665;-67
2022/07/22 04:03:10;;;;;;;16.37;12.00;;;;;;;24.26;61.85;99440.91;5092589;28;20218;-66
2022/07/22 04:05:37;;;;;;;13.33;11.33;;;;;;;24.36;61.93;99453.63;5093063;28;20191;-66
2022/07/22 04:08:05;;;;;;;18.13;12.03;;;;;;;24.30;62.38;99453.00;5092461;28;20201;-66
2022/07/22 04:10:32;;;;;;;17.35;12.43;;;;;;;24.33;62.92;99450.25;5091701;28;20827;-66
2022/07/22 04:13:00;;;;;;;20.13;11.87;;;;;;;24.26;63.22;99456.66;5092786;28;20190;-66
2022/07/22 04:15:27;;;;;;;15.03;11.83;;;;;;;24.32;63.02;99448.53;5092202;28;20209;-66
2022/07/22 04:17:54;;;;;;;21.80;12.00;;;;;;;24.24;63.34;99446.22;5092591;28;20186;-66
2022/07/22 04:20:21;;;;;;;28.27;13.20;;;;;;;23.94;63.29;99421.16;5091556;28;20195;-66
2022/07/22 04:22:47;;;;;;;20.23;12.60;;;;;;;23.84;64.49;99446.03;5092059;28;20697;-66
2022/07/22 04:25:15;;;;;;;23.40;12.80;;;;;;;23.80;64.85;99445.31;5092086;28;20202;-66
2022/07/22 04:27:42;;;;;;;20.43;12.97;;;;;;;23.87;65.06;99443.31;5092302;28;20585;-66
2022/07/22 04:30:11;;;;;;;20.88;13.20;;;;;;;23.85;65.44;99451.22;5090964;28;20432;-66
2022/07/22 04:32:38;;;;;;;14.80;13.20;;;;;;;23.93;64.75;99451.78;5091338;28;20194;-67
2022/07/22 04:35:06;;;;;;;25.00;14.00;;;;;;;23.87;64.81;99454.63;5092070;28;20546;-67
2022/07/22 04:37:33;;;;;;;20.17;14.20;;;;;;;23.82;65.10;99450.47;5092064;28;20204;-67
2022/07/22 04:40:00;;;;;;;23.67;14.43;;;;;;;23.93;64.31;99457.03;5091874;28;20252;-66
2022/07/22 04:42:27;;;;;;;14.83;13.20;;;;;;;23.98;64.04;99457.69;5091584;28;20218;-66
2022/07/22 04:44:53;;;;;;;20.90;13.67;;;;;;;23.86;64.57;99455.56;5091905;28;20187;-66
2022/07/22 04:47:22;;;;;;;18.83;14.33;;;;;;;24.03;64.41;99460.16;5091495;28;20202;-67
2022/07/22 04:49:48;;;;;;;19.40;13.87;;;;;;;23.94;63.97;99458.75;5091501;28;20198;-66
2022/07/22 04:52:15;;;;;;;19.50;13.57;;;;;;;23.96;64.55;99448.19;5091832;28;20190;-66
2022/07/22 04:54:42;;;;;;;18.93;13.60;;;;;;;24.18;64.43;99466.59;5091557;28;20703;-66
2022/07/22 04:57:09;;;;;;;22.07;14.20;;;;;;;24.14;64.31;99465.03;5091144;28;20226;-66
2022/07/22 04:59:36;;;;;;;21.00;14.47;;;;;;;24.05;64.23;99460.97;5091555;28;20194;-66
2022/07/22 05:02:04;;;;;;;18.10;14.50;;;;;;;23.98;64.28;99460.31;5091052;28;20309;-66
2022/07/22 05:04:32;;;;;;;18.07;14.20;;;;;;;23.99;64.57;99462.06;5091297;28;20190;-67
2022/07/22 05:06:59;;;;;;;18.73;14.03;;;;;;;24.12;63.89;99465.06;5091343;28;20199;-67
2022/07/22 05:09:26;;;;;;;21.37;14.13;;;;;;;24.22;64.10;99463.81;5090968;28;20194;-66
2022/07/22 05:11:52;;;;;;;18.50;14.03;;;;;;;24.20;63.82;99464.78;5089607;28;20191;-66
2022/07/22 05:14:20;;;;;;;29.43;14.73;;;;;;;24.28;63.82;99471.44;5092338;28;20569;-67
2022/07/22 05:16:46;;;;;;;22.07;14.80;;;;;;;24.28;63.28;99460.09;5091746;28;20578;-67
2022/07/22 05:19:13;;;;;;;20.73;14.23;;;;;;;24.46;62.41;99456.72;5090799;28;20206;-66
2022/07/22 05:21:41;;;;;;;20.50;14.47;;;;;;;24.55;62.28;99462.47;5090043;28;20195;-66
2022/07/22 05:24:08;;;;;;;18.23;14.00;;;;;;;24.75;62.45;99453.72;5090712;28;20210;-67
2022/07/22 05:26:35;;;;;;;21.70;15.32;;;;;;;25.00;61.54;99462.31;5089694;28;20496;-66
2022/07/22 05:29:02;;;;;;;20.70;15.57;;;;;;;25.19;60.22;99465.88;5090647;28;20202;-67
2022/07/22 05:31:29;;;;;;;20.07;14.00;;;;;;;25.39;60.09;99458.88;5090781;28;20197;-67
2022/07/22 05:33:56;;;;;;;17.17;13.20;;;;;;;25.53;60.20;99454.75;5090553;28;20193;-67
2022/07/22 05:36:23;;;;;;;29.83;14.50;;;;;;;25.56;58.70;99454.59;5090800;28;20665;-67
2022/07/22 05:38:51;;;;;;;17.00;13.43;;;;;;;25.70;58.45;99453.97;5090683;28;20194;-67
2022/07/22 05:41:18;;;;;;;23.63;14.23;;;;;;;25.66;58.54;99462.91;5090653;28;20569;-67
2022/07/22 05:43:45;;;;;;;20.83;14.50;;;;;;;25.76;58.39;99454.56;5089862;28;20606;-67
2022/07/22 05:46:11;;;;;;;21.43;13.93;;;;;;;25.84;57.89;99446.31;5091481;28;20198;-67
2022/07/22 05:48:38;;;;;;;24.60;12.97;;;;;;;25.93;57.49;99447.66;5090644;28;20206;-66
2022/07/22 05:51:12;;;;;;;21.53;13.80;;;;;;;25.95;57.21;99446.66;5090371;28;20209;-66
2022/07/22 05:53:39;;;;;;;23.17;14.50;;;;;;;25.89;57.71;99443.44;5090316;28;20190;-67
2022/07/22 05:56:08;;;;;;;20.97;14.23;;;;;;;26.02;57.68;99442.78;5090324;28;20563;-67
2022/07/22 05:58:35;;;;;;;17.08;13.73;;;;;;;26.17;56.92;99444.75;5089598;28;20452;-66
2022/07/22 06:01:02;;;;;;;25.60;14.87;;;;;;;26.37;56.50;99449.88;5089743;28;20582;-67
2022/07/22 06:03:29;;;;;;;25.20;15.83;;;;;;;26.50;55.82;99444.88;5090069;28;20252;-67
2022/07/22 06:05:56;;;;;;;21.27;15.57;;;;;;;26.62;54.97;99441.63;5089902;28;20187;-67
2022/07/22 06:08:22;;;;;;;19.37;15.60;;;;;;;26.65;54.58;99440.59;5090281;28;20187;-66
2022/07/22 06:10:49;;;;;;;21.30;15.63;;;;;;;26.69;54.63;99439.53;5089936;28;20673;-67
2022/07/22 06:13:18;;;;;;;24.47;16.17;;;;;;;26.83;54.81;99432.69;5089812;28;20282;-67
2022/07/22 06:15:45;;;;;;;27.90;15.77;;;;;;;26.97;54.08;99439.03;5089858;28;20190;-67
2022/07/22 06:18:12;;;;;;;22.67;14.33;;;;;;;26.80;52.25;99431.97;5089882;28;20191;-67
2022/07/22 06:20:39;;;;;;;18.05;15.68;;;;;;;26.75;53.02;99434.81;5087619;28;20444;-67
2022/07/22 06:23:06;;;;;;;17.08;14.50;;;;;;;27.04;52.63;99436.00;5089374;28;20260;-68
2022/07/22 06:25:33;;;;;;;19.90;14.77;;;;;;;27.09;53.71;99438.38;5086770;28;20201;-67
2022/07/22 06:27:59;;;;;;;21.53;14.53;;;;;;;27.14;53.51;99442.47;5089549;28;20195;-68
2022/07/22 06:30:28;;;;;;;16.23;14.37;;;;;;;26.99;53.61;99429.25;5087826;28;20210;-67
2022/07/22 06:32:55;;;;;;;17.50;14.00;;;;;;;27.02;51.91;99429.09;5075935;28;20287;-66
2022/07/22 06:35:24;;;;;;;18.83;13.83;;;;;;;27.11;52.52;99432.13;5075602;28;20201;-67
2022/07/22 06:37:51;;;;;;;15.13;13.57;;;;;;;27.26;51.33;99436.56;5089409;28;20256;-67
2022/07/22 06:40:18;;;;;;;20.90;14.07;;;;;;;27.38;49.96;99441.22;5089115;28;20206;-67
2022/07/22 06:42:45;;;;;;;18.30;13.80;;;;;;;27.46;49.54;99432.91;5077367;28;20218;-68
2022/07/22 06:45:12;;;;;;;18.00;12.43;;;;;;;27.49;48.61;99433.63;5086299;28;20195;-67
2022/07/22 06:47:40;;;;;;;18.08;12.32;;;;;;;27.46;48.75;99439.06;5089009;28;20205;-67
2022/07/22 06:50:09;;;;;;;14.85;11.70;;;;;;;27.56;48.23;99434.13;5088566;28;20451;-68
2022/07/22 06:52:39;;;;;;;14.32;12.00;;;;;;;27.68;47.77;99425.53;5084473;28;20721;-68
2022/07/22 06:55:07;;;;;;;13.05;11.52;;;;;;;27.80;47.69;99430.13;5073810;28;20195;-68
2022/07/22 06:57:34;;;;;;;12.67;11.37;;;;;;;27.92;47.43;99442.69;5072621;28;20219;-69
2022/07/22 07:00:01;;;;;;;12.70;11.20;;;;;;;27.82;47.21;99440.63;5072513;28;20217;-68
2022/07/22 07:02:28;;;;;;;12.53;10.97;;;;;;;27.71;48.07;99438.59;5091394;28;20277;-69
2022/07/22 07:04:56;;;;;;;13.02;11.60;;;;;;;27.76;47.55;99430.41;5093202;28;20546;-68
2022/07/22 07:07:23;;;;;;;14.23;10.90;;;;;;;27.74;47.22;99433.13;5092431;28;20552;-58
2022/07/22 07:09:50;;;;;;;14.30;12.77;;;;;;;27.64;47.81;99429.28;5092516;28;20200;-58
2022/07/22 07:12:17;;;;;;;12.77;10.35;;;;;;;27.79;46.74;99431.09;5093085;28;20199;-58
2022/07/22 07:14:44;;;;;;;10.25;9.25;;;;;;;27.86;46.21;99426.31;5092588;28;20199;-58
2022/07/22 07:17:10;;;;;;;15.13;10.18;;;;;;;28.07;46.48;99439.19;5092921;28;20193;-59
2022/07/22 07:19:37;;;;;;;11.55;10.45;;;;;;;28.16;45.68;99436.97;5089663;28;20195;-59
2022/07/22 07:22:05;;;;;;;12.40;10.10;;;;;;;28.25;45.93;99444.41;5072084;28;20663;-58
2022/07/22 07:24:32;;;;;;;12.07;9.10;;;;;;;28.30;44.98;99444.97;5075671;28;20713;-59
2022/07/22 07:26:59;;;;;;;14.27;9.60;;;;;;;28.32;44.83;99449.25;5087089;28;20203;-58
2022/07/22 07:29:26;;;;;;;10.80;9.70;;;;;;;28.28;45.00;99441.59;5078575;28;20206;-58
2022/07/22 07:31:53;;;;;;;10.88;9.13;;;;;;;28.30;45.22;99440.56;5092125;28;20198;-59
2022/07/22 07:34:20;;;;;;;11.82;9.57;;;;;;;28.36;45.22;99436.72;5092641;28;20193;-59
2022/07/22 07:36:47;;;;;;;10.65;9.65;;;;;;;28.40;45.09;99433.81;5091671;28;20205;-59
2022/07/22 07:39:15;;;;;;;13.15;9.70;;;;;;;28.44;44.99;99431.84;5091961;28;20575;-58
2022/07/22 07:41:42;;;;;;;14.80;12.43;;;;;;;28.63;44.72;99443.94;5091151;28;20187;-58
2022/07/22 07:44:09;;;;;;;13.80;10.48;;;;;;;28.84;45.17;99427.75;5092383;28;20321;-58
2022/07/22 07:46:36;;;;;;;12.35;10.57;;;;;;;28.93;44.03;99433.34;5091694;28;20440;-58
2022/07/22 07:49:03;;;;;;;12.27;9.38;;;;;;;28.97;43.42;99436.66;5092029;28;20224;-58
2022/07/22 07:51:30;;;;;;;10.63;9.73;;;;;;;29.07;43.51;99438.66;5091831;28;20661;-58
2022/07/22 07:53:56;;;;;;;11.35;10.00;;;;;;;29.24;43.74;99443.81;5091819;28;20191;-58
2022/07/22 07:56:25;;;;;;;10.23;9.23;;;;;;;29.03;43.34;99429.22;5091337;28;20561;-59
2022/07/22 07:58:52;;;;;;;13.82;9.77;;;;;;;29.04;43.61;99436.19;5091580;28;20191;-58
2022/07/22 08:01:19;;;;;;;20.10;11.05;;;;;;;29.24;44.16;99435.88;5092195;28;20199;-58
2022/07/22 08:03:46;;;;;;;13.63;9.85;;;;;;;29.41;43.40;99426.91;5091825;28;20267;-58
2022/07/22 08:06:12;;;;;;;12.80;9.82;;;;;;;29.59;43.75;99433.69;5090858;28;20432;-59
2022/07/22 08:08:39;;;;;;;10.85;9.05;;;;;;;29.81;43.19;99422.63;5090230;28;20194;-58
2022/07/22 08:11:06;;;;;;;12.20;10.40;;;;;;;29.86;41.50;99417.06;5091859;28;20269;-58
2022/07/22 08:13:34;;;;;;;12.10;10.65;;;;;;;29.81;41.93;99420.00;5091552;28;20199;-58
2022/07/22 08:16:02;;;;;;;21.20;11.48;;;;;;;29.89;41.54;99422.16;5091704;28;20665;-59
2022/07/22 08:18:29;;;;;;;12.95;11.65;;;;;;;30.00;41.75;99417.00;5091405;28;20195;-58
2022/07/22 08:20:56;;;;;;;12.18;10.98;;;;;;;30.04;40.44;99423.81;5091334;28;20284;-58
2022/07/22 08:23:23;;;;;;;12.02;10.48;;;;;;;30.08;40.56;99417.38;5091152;28;20214;-59
2022/07/22 08:25:50;;;;;;;14.18;10.02;;;;;;;30.13;40.91;99418.78;5091215;28;20194;-58
2022/07/22 08:28:17;;;;;;;10.82;9.75;;;;;;;30.12;39.96;99414.44;5091425;28;20194;-59
2022/07/22 08:30:45;;;;;;;10.80;9.63;;;;;;;30.17;39.07;99414.97;5091229;28;20190;-58
2022/07/22 08:33:12;;;;;;;13.73;10.77;;;;;;;30.25;39.51;99417.13;5091334;28;20190;-58
2022/07/22 08:35:39;;;;;;;12.65;10.25;;;;;;;30.05;39.30;99406.97;5091079;28;20198;-58
2022/07/22 08:38:06;;;;;;;11.45;10.32;;;;;;;30.18;38.85;99416.69;5090931;28;20273;-58
2022/07/22 08:40:33;;;;;;;11.57;10.38;;;;;;;30.21;38.77;99415.63;5083351;28;20192;-58
2022/07/22 08:43:02;;;;;;;12.05;10.85;;;;;;;30.27;39.44;99417.88;5085289;28;20438;-58
2022/07/22 08:45:29;;;;;;;12.50;10.00;;;;;;;30.48;38.05;99418.28;5070908;28;20234;-58
2022/07/22 08:47:59;;;;;;;11.73;10.07;;;;;;;30.59;37.31;99424.59;5073472;28;20191;-58
2022/07/22 08:50:26;;;;;;;14.30;11.48;;;;;;;30.63;38.11;99418.13;5090804;28;20195;-59
2022/07/22 08:52:53;;;;;;;12.80;11.48;;;;;;;30.74;38.69;99414.72;5075622;28;20566;-59
2022/07/22 08:55:19;;;;;;;13.25;11.95;;;;;;;30.86;38.05;99424.53;5069890;28;20574;-61
2022/07/22 08:57:47;;;;;;;11.93;10.65;;;;;;;30.93;37.48;99416.06;5073531;28;20708;-58
2022/07/22 09:00:16;;;;;;;11.85;10.18;;;;;;;31.06;36.91;99425.84;5090609;28;20190;-59
2022/07/22 09:02:44;;;;;;;14.15;11.00;;;;;;;31.08;37.95;99421.28;5085235;28;20204;-59
2022/07/22 09:05:14;;;;;;;13.93;11.43;;;;;;;31.03;37.13;99416.31;5081877;28;20218;-59
2022/07/22 09:07:43;;;;;;;12.80;11.40;;;;;;;31.02;37.72;99416.41;5090607;28;20186;-59
2022/07/22 09:10:12;;;;;;;13.65;11.63;;;;;;;31.13;37.32;99420.00;5090664;28;20199;-59
2022/07/22 09:12:54;;;;;;;14.98;10.95;;;;;;;31.25;36.85;99418.31;5075846;28;20237;-59
2022/07/22 09:15:27;;;;;;;13.70;10.75;;;;;;;31.33;36.52;99423.94;5090306;28;20190;-59
2022/07/22 09:17:54;;;;;;;14.30;10.75;;;;;;;31.35;35.84;99406.94;5090734;28;20195;-60
2022/07/22 09:20:23;;;;;;;12.15;10.98;;;;;;;31.33;36.22;99414.19;5084442;28;20197;-59
2022/07/22 09:22:53;;;;;;;13.15;11.73;;;;;;;31.42;36.46;99421.50;5090053;28;20581;-59
2022/07/22 09:25:28;;;;;;;14.45;11.10;;;;;;;31.52;36.35;99419.94;5089725;28;20215;-58
2022/07/22 09:28:09;;;;;;;12.73;11.38;;;;;;;31.52;35.76;99413.75;5087531;28;20216;-58
2022/07/22 09:30:39;;;;;;;12.38;11.27;;;;;;;31.45;35.78;99405.31;5080077;28;20252;-58
2022/07/22 09:33:07;;;;;;;11.23;10.13;;;;;;;31.49;35.70;99414.81;5089945;28;20676;-59
2022/07/22 09:35:36;;;;;;;13.25;10.93;;;;;;;31.54;35.67;99394.09;5089914;28;20207;-58
2022/07/22 09:38:05;;;;;;;14.35;12.25;;;;;;;31.74;35.50;99419.25;5089494;28;20557;-58
2022/07/22 09:40:34;;;;;;;12.27;11.07;;;;;;;31.83;34.71;99407.97;5089639;28;20198;-58
2022/07/22 09:43:03;;;;;;;14.63;11.57;;;;;;;31.77;35.09;99411.06;5089938;28;20195;-59
2022/07/22 09:45:31;;;;;;;13.82;11.85;;;;;;;31.87;34.92;99412.06;5089951;28;20195;-59
2022/07/22 09:48:00;;;;;;;14.90;12.52;;;;;;;31.94;34.81;99404.53;5089497;28;20207;-59
2022/07/22 09:50:28;;;;;;;12.35;11.15;;;;;;;32.06;34.20;99406.28;5089658;28;20191;-59
2022/07/22 09:52:59;;;;;;;14.30;12.10;;;;;;;32.19;34.36;99400.94;5089581;28;20197;-57
2022/07/22 09:55:28;;;;;;;15.57;12.38;;;;;;;32.26;33.66;99402.19;5089855;28;20191;-58
2022/07/22 09:57:56;;;;;;;13.88;12.48;;;;;;;32.36;34.24;99401.38;5089737;28;20233;-58
2022/07/22 10:00:25;;;;;;;15.00;12.70;;;;;;;32.48;33.94;99407.59;5088653;28;20436;-66
2022/07/22 10:02:54;;;;;;;14.95;12.52;;;;;;;32.52;33.76;99395.78;5080281;28;20191;-67
2022/07/22 10:05:24;;;;;;;14.63;11.50;;;;;;;32.67;33.04;99405.28;5084136;28;20689;-66
2022/07/22 10:07:53;;;;;;;15.23;13.70;;;;;;;32.75;33.14;99394.88;5083846;28;20199;-67
2022/07/22 10:10:23;;;;;;;16.80;13.23;;;;;;;32.68;33.70;99386.56;5068723;28;20438;-66
2022/07/22 10:12:51;;;;;;;14.65;11.77;;;;;;;32.79;32.05;99391.03;5077715;28;20442;-67
2022/07/22 10:15:18;;;;;;;15.30;12.88;;;;;;;32.90;32.92;99388.41;5086453;28;20186;-67
2022/07/22 10:17:49;;;;;;;14.55;13.07;;;;;;;33.00;33.25;99384.06;5074819;28;20218;-66
2022/07/22 10:20:19;;;;;;;15.63;14.07;;;;;;;32.68;32.66;99369.72;5088341;28;20504;-66
2022/07/22 10:22:51;;;;;;;16.60;14.90;;;;;;;32.88;32.88;99390.31;5088765;28;20429;-66
2022/07/22 10:25:19;;;;;;;17.02;14.48;;;;;;;32.93;32.70;99374.00;5074034;28;20735;-66
2022/07/22 10:27:50;;;;;;;15.38;13.90;;;;;;;33.04;32.91;99376.69;5069097;28;20268;-66
2022/07/22 10:30:19;;;;;;;16.08;13.60;;;;;;;33.18;32.42;99369.31;5068445;28;20187;-66
2022/07/22 10:32:46;;;;;;;19.63;14.60;;;;;;;33.11;32.00;99362.81;5069171;28;20198;-67
2022/07/22 10:35:24;;;;;;;15.25;13.63;;;;;;;33.10;32.11;99360.28;5069547;28;20203;-66
2022/07/22 10:37:57;;;;;;;13.55;12.23;;;;;;;32.93;32.41;99372.19;5069401;28;20187;-66
2022/07/22 10:40:25;;;;;;;15.40;13.75;;;;;;;32.96;32.77;99358.66;5069266;28;20188;-66
2022/07/22 10:43:07;;;;;;;19.92;14.80;;;;;;;32.95;33.09;99361.41;5068816;28;20951;-67
2022/07/22 10:45:35;;;;;;;15.90;14.23;;;;;;;33.16;32.69;99365.94;5069611;28;20223;-66
2022/07/22 10:48:05;;;;;;;14.38;13.02;;;;;;;33.28;31.69;99358.81;5069335;28;20191;-66
2022/07/22 10:50:50;;;;;;;18.90;12.68;;;;;;;33.41;31.55;99356.00;5069000;28;20263;-67
2022/07/22 10:53:20;;;;;;;14.63;12.23;;;;;;;33.54;31.05;99359.41;5069144;28;20187;-66
2022/07/22 10:56:12;;;;;;;15.55;13.68;;;;;;;33.70;31.16;99360.75;5069010;28;20195;-66
2022/07/22 10:58:55;;;;;;;12.70;11.50;;;;;;;33.78;30.45;99355.66;5067243;28;20234;-58
2022/07/22 11:01:26;;;;;;;13.52;12.20;;;;;;;33.84;30.03;99357.78;5068963;28;20192;-58
2022/07/22 11:03:53;;;;;;;12.68;11.52;;;;;;;33.86;30.08;99352.34;5069017;28;20320;-58
2022/07/22 11:06:23;;;;;;;20.15;12.95;;;;;;;33.96;30.90;99355.09;5087742;28;20202;-58
2022/07/22 11:08:53;;;;;;;14.15;12.40;;;;;;;33.75;30.62;99357.69;5089003;28;20206;-58
2022/07/22 11:11:32;;;;;;;13.05;11.27;;;;;;;33.71;30.18;99356.25;5089169;28;20649;-58
2022/07/22 11:14:01;;;;;;;11.27;9.50;;;;;;;33.64;29.43;99355.06;5088789;28;20489;-58
2022/07/22 11:16:29;;;;;;;10.68;8.88;;;;;;;33.93;28.94;99353.53;5073528;28;20255;-58
2022/07/22 11:19:01;;;;;;;10.32;8.80;;;;;;;34.16;28.71;99351.66;5069200;28;20566;-58
2022/07/22 11:21:31;;;;;;;13.35;9.68;;;;;;;34.25;28.30;99346.44;5069266;28;20198;-58
2022/07/22 11:24:01;;;;;;;11.93;9.52;;;;;;;34.40;29.10;99352.28;5068741;28;20305;-58
2022/07/22 11:26:39;;;;;;;12.27;10.98;;;;;;;34.59;28.70;99344.44;5068959;28;20218;-57